sensor_id;sensor_type;location;lat;lon;timestamp;temperature;humidity
45104;DHT22;30865;51.288;4.572;2023-05-14T00:01:05;12.70;99.90
45104;DHT22;30865;51.288;4.572;2023-05-14T00:03:32;12.80;99.90
45104;DHT22;30865;51.288;4.572;2023-05-14T00:05:58;12.80;99.90
45104;DHT22;30865;51.288;4.572;2023-05-14T00:08:23;12.70;99.90
45104;DHT22;30865;51.288;4.572;2023-05-14T00:10:49;12.70;99.90
45104;DHT22;30865;51.288;4.572;2023-05-14T00:13:15;12.70;99.90
45104;DHT22;30865;51.288;4.572;2023-05-14T00:15:40;12.70;99.90
45104;DHT22;30865;51.288;4.572;2023-05-14T00:18:06;12.60;99.90
45104;DHT22;30865;51.288;4.572;2023-05-14T00:20:31;12.60;99.90
45104;DHT22;30865;51.288;4.572;2023-05-14T00:22:57;12.50;99.90
45104;DHT22;30865;51.288;4.572;2023-05-14T00:25:22;12.50;99.90
45104;DHT22;30865;51.288;4.572;2023-05-14T00:27:48;12.50;99.90
45104;DHT22;30865;51.288;4.572;2023-05-14T00:30:13;12.50;99.90
45104;DHT22;30865;51.288;4.572;2023-05-14T00:32:39;12.40;99.90
45104;DHT22;30865;51.288;4.572;2023-05-14T00:35:05;12.40;99.90
45104;DHT22;30865;51.288;4.572;2023-05-14T00:37:30;12.40;99.90
45104;DHT22;30865;51.288;4.572;2023-05-14T00:39:56;12.40;99.90
45104;DHT22;30865;51.288;4.572;2023-05-14T00:42:22;12.40;99.90
45104;DHT22;30865;51.288;4.572;2023-05-14T00:44:47;12.30;99.90
45104;DHT22;30865;51.288;4.572;2023-05-14T00:47:13;12.30;99.90
45104;DHT22;30865;51.288;4.572;2023-05-14T00:49:38;12.40;99.90
45104;DHT22;30865;51.288;4.572;2023-05-14T00:52:05;12.40;99.90
45104;DHT22;30865;51.288;4.572;2023-05-14T00:54:32;12.40;99.90
45104;DHT22;30865;51.288;4.572;2023-05-14T00:56:59;12.20;99.90
45104;DHT22;30865;51.288;4.572;2023-05-14T00:59:25;12.20;99.90
45104;DHT22;30865;51.288;4.572;2023-05-14T01:01:50;12.10;99.90
45104;DHT22;30865;51.288;4.572;2023-05-14T01:04:16;12.00;99.90
45104;DHT22;30865;51.288;4.572;2023-05-14T01:09:43;11.90;99.90
45104;DHT22;30865;51.288;4.572;2023-05-14T01:12:39;11.90;99.90
45104;DHT22;30865;51.288;4.572;2023-05-14T01:15:11;11.70;99.90
45104;DHT22;30865;51.288;4.572;2023-05-14T01:17:40;11.70;99.90
45104;DHT22;30865;51.288;4.572;2023-05-14T01:20:08;11.70;99.90
45104;DHT22;30865;51.288;4.572;2023-05-14T01:22:34;11.70;99.90
45104;DHT22;30865;51.288;4.572;2023-05-14T01:24:59;11.80;99.90
45104;DHT22;30865;51.288;4.572;2023-05-14T01:30:15;11.60;99.90
45104;DHT22;30865;51.288;4.572;2023-05-14T01:32:47;11.90;99.90
45104;DHT22;30865;51.288;4.572;2023-05-14T01:35:15;11.50;99.90
45104;DHT22;30865;51.288;4.572;2023-05-14T01:37:40;11.60;99.90
45104;DHT22;30865;51.288;4.572;2023-05-14T01:40:08;11.50;99.90
45104;DHT22;30865;51.288;4.572;2023-05-14T01:42:35;11.50;99.90
45104;DHT22;30865;51.288;4.572;2023-05-14T01:45:02;11.50;99.90
45104;DHT22;30865;51.288;4.572;2023-05-14T01:47:28;11.30;99.90
45104;DHT22;30865;51.288;4.572;2023-05-14T01:49:53;11.30;99.90
45104;DHT22;30865;51.288;4.572;2023-05-14T01:52:19;11.30;99.90
45104;DHT22;30865;51.288;4.572;2023-05-14T01:54:46;11.20;99.90
45104;DHT22;30865;51.288;4.572;2023-05-14T01:57:11;11.20;99.90
45104;DHT22;30865;51.288;4.572;2023-05-14T01:59:37;11.20;99.90
45104;DHT22;30865;51.288;4.572;2023-05-14T02:02:03;11.30;99.90
45104;DHT22;30865;51.288;4.572;2023-05-14T02:04:28;11.30;99.90
45104;DHT22;30865;51.288;4.572;2023-05-14T02:09:20;11.20;99.90
45104;DHT22;30865;51.288;4.572;2023-05-14T02:11:45;11.10;99.90
45104;DHT22;30865;51.288;4.572;2023-05-14T02:14:11;11.20;99.90
45104;DHT22;30865;51.288;4.572;2023-05-14T02:16:36;11.20;99.90
45104;DHT22;30865;51.288;4.572;2023-05-14T02:19:02;11.10;99.90
45104;DHT22;30865;51.288;4.572;2023-05-14T02:21:27;11.20;99.90
45104;DHT22;30865;51.288;4.572;2023-05-14T02:23:53;11.10;99.90
45104;DHT22;30865;51.288;4.572;2023-05-14T02:26:18;11.20;99.90
45104;DHT22;30865;51.288;4.572;2023-05-14T02:28:44;11.20;99.90
45104;DHT22;30865;51.288;4.572;2023-05-14T02:31:10;11.20;99.90
45104;DHT22;30865;51.288;4.572;2023-05-14T02:33:38;11.10;99.90
45104;DHT22;30865;51.288;4.572;2023-05-14T02:36:04;11.10;99.90
45104;DHT22;30865;51.288;4.572;2023-05-14T02:38:30;11.10;99.90
45104;DHT22;30865;51.288;4.572;2023-05-14T02:40:55;11.10;99.90
45104;DHT22;30865;51.288;4.572;2023-05-14T02:43:21;11.10;99.90
45104;DHT22;30865;51.288;4.572;2023-05-14T02:45:46;11.00;99.90
45104;DHT22;30865;51.288;4.572;2023-05-14T02:48:12;11.10;99.90
45104;DHT22;30865;51.288;4.572;2023-05-14T02:50:37;11.10;99.90
45104;DHT22;30865;51.288;4.572;2023-05-14T02:53:03;11.10;99.90
45104;DHT22;30865;51.288;4.572;2023-05-14T02:55:28;11.20;99.90
45104;DHT22;30865;51.288;4.572;2023-05-14T02:57:54;11.10;99.90
45104;DHT22;30865;51.288;4.572;2023-05-14T03:00:21;11.00;99.90
45104;DHT22;30865;51.288;4.572;2023-05-14T03:02:46;11.10;99.90
45104;DHT22;30865;51.288;4.572;2023-05-14T03:05:12;11.10;99.90
45104;DHT22;30865;51.288;4.572;2023-05-14T03:07:37;11.00;99.90
45104;DHT22;30865;51.288;4.572;2023-05-14T03:10:03;10.80;99.90
45104;DHT22;30865;51.288;4.572;2023-05-14T03:12:28;11.10;99.90
45104;DHT22;30865;51.288;4.572;2023-05-14T03:14:54;11.10;99.90
45104;DHT22;30865;51.288;4.572;2023-05-14T03:17:20;11.20;99.90
45104;DHT22;30865;51.288;4.572;2023-05-14T03:19:45;11.10;99.90
45104;DHT22;30865;51.288;4.572;2023-05-14T03:22:11;11.20;99.90
45104;DHT22;30865;51.288;4.572;2023-05-14T03:24:38;11.10;99.90
45104;DHT22;30865;51.288;4.572;2023-05-14T03:27:06;11.20;99.90
45104;DHT22;30865;51.288;4.572;2023-05-14T03:29:32;11.10;99.90
45104;DHT22;30865;51.288;4.572;2023-05-14T03:31:57;11.00;99.90
45104;DHT22;30865;51.288;4.572;2023-05-14T03:34:23;11.10;99.90
45104;DHT22;30865;51.288;4.572;2023-05-14T03:36:49;11.00;99.90
45104;DHT22;30865;51.288;4.572;2023-05-14T03:39:15;11.10;99.90
45104;DHT22;30865;51.288;4.572;2023-05-14T03:41:44;11.20;99.90
45104;DHT22;30865;51.288;4.572;2023-05-14T03:44:10;11.20;99.90
45104;DHT22;30865;51.288;4.572;2023-05-14T03:46:36;11.10;99.90
45104;DHT22;30865;51.288;4.572;2023-05-14T03:49:01;11.10;99.90
45104;DHT22;30865;51.288;4.572;2023-05-14T03:51:27;11.00;99.90
45104;DHT22;30865;51.288;4.572;2023-05-14T03:53:55;11.00;99.90
45104;DHT22;30865;51.288;4.572;2023-05-14T03:56:22;11.10;99.90
45104;DHT22;30865;51.288;4.572;2023-05-14T03:58:48;11.00;99.90
45104;DHT22;30865;51.288;4.572;2023-05-14T04:01:13;11.00;99.90
45104;DHT22;30865;51.288;4.572;2023-05-14T04:03:39;11.10;99.90
45104;DHT22;30865;51.288;4.572;2023-05-14T04:06:04;11.10;99.90
45104;DHT22;30865;51.288;4.572;2023-05-14T04:08:30;11.10;99.90
45104;DHT22;30865;51.288;4.572;2023-05-14T04:10:56;11.10;99.90
45104;DHT22;30865;51.288;4.572;2023-05-14T04:13:21;11.10;99.90
45104;DHT22;30865;51.288;4.572;2023-05-14T04:15:47;11.10;99.90
45104;DHT22;30865;51.288;4.572;2023-05-14T04:18:12;11.10;99.90
45104;DHT22;30865;51.288;4.572;2023-05-14T04:20:38;11.20;99.90
45104;DHT22;30865;51.288;4.572;2023-05-14T04:23:03;11.00;99.90
45104;DHT22;30865;51.288;4.572;2023-05-14T04:25:29;11.00;99.90
45104;DHT22;30865;51.288;4.572;2023-05-14T04:27:54;11.10;99.90
45104;DHT22;30865;51.288;4.572;2023-05-14T04:30:20;11.00;99.90
45104;DHT22;30865;51.288;4.572;2023-05-14T04:32:45;11.10;99.90
45104;DHT22;30865;51.288;4.572;2023-05-14T04:35:11;11.10;99.90
45104;DHT22;30865;51.288;4.572;2023-05-14T04:37:37;11.10;99.90
45104;DHT22;30865;51.288;4.572;2023-05-14T04:40:04;11.10;99.90
45104;DHT22;30865;51.288;4.572;2023-05-14T04:42:30;11.10;99.90
45104;DHT22;30865;51.288;4.572;2023-05-14T04:44:55;11.10;99.90
45104;DHT22;30865;51.288;4.572;2023-05-14T04:47:21;11.10;99.90
45104;DHT22;30865;51.288;4.572;2023-05-14T04:49:46;11.10;99.90
45104;DHT22;30865;51.288;4.572;2023-05-14T04:52:12;11.10;99.90
45104;DHT22;30865;51.288;4.572;2023-05-14T04:54:38;11.00;99.90
45104;DHT22;30865;51.288;4.572;2023-05-14T04:57:03;11.00;99.90
45104;DHT22;30865;51.288;4.572;2023-05-14T04:59:30;11.00;99.90
45104;DHT22;30865;51.288;4.572;2023-05-14T05:01:55;11.00;99.90
45104;DHT22;30865;51.288;4.572;2023-05-14T05:04:22;11.00;99.90
45104;DHT22;30865;51.288;4.572;2023-05-14T05:06:49;11.00;99.90
45104;DHT22;30865;51.288;4.572;2023-05-14T05:09:16;11.00;99.90
45104;DHT22;30865;51.288;4.572;2023-05-14T05:11:41;11.00;99.90
45104;DHT22;30865;51.288;4.572;2023-05-14T05:14:07;11.00;99.90
45104;DHT22;30865;51.288;4.572;2023-05-14T05:16:32;11.00;99.90
45104;DHT22;30865;51.288;4.572;2023-05-14T05:18:58;11.10;99.90
45104;DHT22;30865;51.288;4.572;2023-05-14T05:21:23;11.10;99.90
45104;DHT22;30865;51.288;4.572;2023-05-14T05:23:49;11.10;99.90
45104;DHT22;30865;51.288;4.572;2023-05-14T05:26:14;11.20;99.90
45104;DHT22;30865;51.288;4.572;2023-05-14T05:28:40;11.10;99.90
45104;DHT22;30865;51.288;4.572;2023-05-14T05:31:06;11.10;99.90
45104;DHT22;30865;51.288;4.572;2023-05-14T05:33:33;11.10;99.90
45104;DHT22;30865;51.288;4.572;2023-05-14T05:36:08;11.10;99.90
45104;DHT22;30865;51.288;4.572;2023-05-14T05:38:34;11.10;99.90
45104;DHT22;30865;51.288;4.572;2023-05-14T05:40:59;11.10;99.90
45104;DHT22;30865;51.288;4.572;2023-05-14T05:43:25;11.10;99.90
45104;DHT22;30865;51.288;4.572;2023-05-14T05:45:50;11.20;99.90
45104;DHT22;30865;51.288;4.572;2023-05-14T05:48:25;11.20;99.90
45104;DHT22;30865;51.288;4.572;2023-05-14T05:50:51;11.20;99.90
45104;DHT22;30865;51.288;4.572;2023-05-14T05:53:17;11.30;99.90
45104;DHT22;30865;51.288;4.572;2023-05-14T05:55:42;11.30;99.90
45104;DHT22;30865;51.288;4.572;2023-05-14T05:58:10;11.30;99.90
45104;DHT22;30865;51.288;4.572;2023-05-14T06:00:38;11.30;99.90
45104;DHT22;30865;51.288;4.572;2023-05-14T06:03:03;11.30;99.90
45104;DHT22;30865;51.288;4.572;2023-05-14T06:05:29;11.40;99.90
45104;DHT22;30865;51.288;4.572;2023-05-14T06:07:54;11.60;99.90
45104;DHT22;30865;51.288;4.572;2023-05-14T06:10:20;11.70;99.90
45104;DHT22;30865;51.288;4.572;2023-05-14T06:12:45;11.80;99.90
45104;DHT22;30865;51.288;4.572;2023-05-14T06:15:11;11.80;99.90
45104;DHT22;30865;51.288;4.572;2023-05-14T06:17:37;11.80;99.90
45104;DHT22;30865;51.288;4.572;2023-05-14T06:20:03;11.90;99.90
45104;DHT22;30865;51.288;4.572;2023-05-14T06:22:35;12.10;99.90
45104;DHT22;30865;51.288;4.572;2023-05-14T06:25:02;12.10;99.90
45104;DHT22;30865;51.288;4.572;2023-05-14T06:27:27;12.20;99.90
45104;DHT22;30865;51.288;4.572;2023-05-14T06:29:53;12.30;99.90
45104;DHT22;30865;51.288;4.572;2023-05-14T06:32:18;12.40;99.90
45104;DHT22;30865;51.288;4.572;2023-05-14T06:34:44;12.30;99.90
45104;DHT22;30865;51.288;4.572;2023-05-14T06:37:09;12.30;99.90
45104;DHT22;30865;51.288;4.572;2023-05-14T06:39:36;12.30;99.90
45104;DHT22;30865;51.288;4.572;2023-05-14T06:42:02;12.30;99.90
45104;DHT22;30865;51.288;4.572;2023-05-14T06:44:27;12.30;99.90
45104;DHT22;30865;51.288;4.572;2023-05-14T06:46:53;12.40;99.90
45104;DHT22;30865;51.288;4.572;2023-05-14T06:49:18;12.40;99.90
45104;DHT22;30865;51.288;4.572;2023-05-14T06:51:44;12.40;99.90
45104;DHT22;30865;51.288;4.572;2023-05-14T06:54:10;12.40;99.90
45104;DHT22;30865;51.288;4.572;2023-05-14T06:56:35;12.60;99.90
45104;DHT22;30865;51.288;4.572;2023-05-14T06:59:01;12.70;99.90
45104;DHT22;30865;51.288;4.572;2023-05-14T07:01:27;12.80;99.90
45104;DHT22;30865;51.288;4.572;2023-05-14T07:03:52;12.90;99.90
45104;DHT22;30865;51.288;4.572;2023-05-14T07:06:18;12.80;99.90
45104;DHT22;30865;51.288;4.572;2023-05-14T07:08:43;12.90;99.90
45104;DHT22;30865;51.288;4.572;2023-05-14T07:11:12;12.80;99.90
45104;DHT22;30865;51.288;4.572;2023-05-14T07:13:38;12.80;99.90
45104;DHT22;30865;51.288;4.572;2023-05-14T07:16:04;12.90;99.90
45104;DHT22;30865;51.288;4.572;2023-05-14T07:18:29;13.20;99.90
45104;DHT22;30865;51.288;4.572;2023-05-14T07:20:55;13.30;99.90
45104;DHT22;30865;51.288;4.572;2023-05-14T07:23:21;13.40;99.90
45104;DHT22;30865;51.288;4.572;2023-05-14T07:25:46;13.50;99.90
45104;DHT22;30865;51.288;4.572;2023-05-14T07:28:12;13.60;99.90
45104;DHT22;30865;51.288;4.572;2023-05-14T07:30:37;13.50;99.90
45104;DHT22;30865;51.288;4.572;2023-05-14T07:33:03;13.70;99.90
45104;DHT22;30865;51.288;4.572;2023-05-14T07:35:28;13.80;99.90
45104;DHT22;30865;51.288;4.572;2023-05-14T07:37:54;14.10;99.90
45104;DHT22;30865;51.288;4.572;2023-05-14T07:40:19;13.90;99.90
45104;DHT22;30865;51.288;4.572;2023-05-14T07:42:45;14.20;99.90
45104;DHT22;30865;51.288;4.572;2023-05-14T07:45:10;14.40;99.90
45104;DHT22;30865;51.288;4.572;2023-05-14T07:47:36;14.20;99.90
45104;DHT22;30865;51.288;4.572;2023-05-14T07:50:03;14.50;99.90
45104;DHT22;30865;51.288;4.572;2023-05-14T07:52:29;14.60;99.90
45104;DHT22;30865;51.288;4.572;2023-05-14T07:55:04;14.50;99.90
45104;DHT22;30865;51.288;4.572;2023-05-14T07:57:30;14.20;99.90
45104;DHT22;30865;51.288;4.572;2023-05-14T07:59:55;14.30;99.90
45104;DHT22;30865;51.288;4.572;2023-05-14T08:02:21;14.20;99.90
45104;DHT22;30865;51.288;4.572;2023-05-14T08:04:46;14.10;99.90
45104;DHT22;30865;51.288;4.572;2023-05-14T08:07:12;14.30;99.90
45104;DHT22;30865;51.288;4.572;2023-05-14T08:09:38;14.30;99.90
45104;DHT22;30865;51.288;4.572;2023-05-14T08:12:03;14.70;99.90
45104;DHT22;30865;51.288;4.572;2023-05-14T08:14:29;14.90;99.90
45104;DHT22;30865;51.288;4.572;2023-05-14T08:16:54;14.90;99.90
45104;DHT22;30865;51.288;4.572;2023-05-14T08:19:21;15.30;99.90
45104;DHT22;30865;51.288;4.572;2023-05-14T08:21:46;15.40;99.90
45104;DHT22;30865;51.288;4.572;2023-05-14T08:24:12;15.20;99.90
45104;DHT22;30865;51.288;4.572;2023-05-14T08:26:37;15.80;99.90
45104;DHT22;30865;51.288;4.572;2023-05-14T08:29:03;15.90;99.90
45104;DHT22;30865;51.288;4.572;2023-05-14T08:31:29;15.80;99.90
45104;DHT22;30865;51.288;4.572;2023-05-14T08:33:54;16.00;99.90
45104;DHT22;30865;51.288;4.572;2023-05-14T08:36:20;15.90;99.90
45104;DHT22;30865;51.288;4.572;2023-05-14T08:38:45;16.00;99.90
45104;DHT22;30865;51.288;4.572;2023-05-14T08:41:11;16.50;99.90
45104;DHT22;30865;51.288;4.572;2023-05-14T08:44:17;16.70;99.90
45104;DHT22;30865;51.288;4.572;2023-05-14T08:46:43;17.10;99.90
45104;DHT22;30865;51.288;4.572;2023-05-14T08:49:37;17.20;99.90
45104;DHT22;30865;51.288;4.572;2023-05-14T08:52:05;17.30;99.90
45104;DHT22;30865;51.288;4.572;2023-05-14T08:54:31;17.00;99.90
45104;DHT22;30865;51.288;4.572;2023-05-14T08:56:57;17.20;99.90
45104;DHT22;30865;51.288;4.572;2023-05-14T08:59:23;17.10;99.90
45104;DHT22;30865;51.288;4.572;2023-05-14T09:01:52;17.20;99.90
45104;DHT22;30865;51.288;4.572;2023-05-14T09:04:22;17.40;99.90
45104;DHT22;30865;51.288;4.572;2023-05-14T09:06:50;17.40;99.90
45104;DHT22;30865;51.288;4.572;2023-05-14T09:09:16;17.00;99.90
45104;DHT22;30865;51.288;4.572;2023-05-14T09:11:46;17.30;99.90
45104;DHT22;30865;51.288;4.572;2023-05-14T09:14:12;17.40;99.90
45104;DHT22;30865;51.288;4.572;2023-05-14T09:16:38;17.50;99.90
45104;DHT22;30865;51.288;4.572;2023-05-14T09:19:05;17.70;99.90
45104;DHT22;30865;51.288;4.572;2023-05-14T09:21:32;17.60;99.90
45104;DHT22;30865;51.288;4.572;2023-05-14T09:23:57;17.80;99.90
45104;DHT22;30865;51.288;4.572;2023-05-14T09:26:23;17.40;99.90
45104;DHT22;30865;51.288;4.572;2023-05-14T09:28:56;18.00;99.90
45104;DHT22;30865;51.288;4.572;2023-05-14T09:31:24;17.90;99.90
45104;DHT22;30865;51.288;4.572;2023-05-14T09:33:51;17.50;99.90
45104;DHT22;30865;51.288;4.572;2023-05-14T09:36:17;17.50;99.90
45104;DHT22;30865;51.288;4.572;2023-05-14T09:38:43;17.30;99.90
45104;DHT22;30865;51.288;4.572;2023-05-14T09:41:09;17.20;99.90
45104;DHT22;30865;51.288;4.572;2023-05-14T09:43:35;17.50;99.90
45104;DHT22;30865;51.288;4.572;2023-05-14T09:46:00;17.70;99.90
45104;DHT22;30865;51.288;4.572;2023-05-14T09:48:26;17.60;99.90
45104;DHT22;30865;51.288;4.572;2023-05-14T09:50:51;17.40;99.90
45104;DHT22;30865;51.288;4.572;2023-05-14T09:53:17;17.60;99.90
45104;DHT22;30865;51.288;4.572;2023-05-14T09:55:44;17.30;99.90
45104;DHT22;30865;51.288;4.572;2023-05-14T09:58:09;17.00;99.90
45104;DHT22;30865;51.288;4.572;2023-05-14T10:00:36;17.40;99.90
45104;DHT22;30865;51.288;4.572;2023-05-14T10:03:06;17.20;99.90
45104;DHT22;30865;51.288;4.572;2023-05-14T10:05:34;17.10;99.90
45104;DHT22;30865;51.288;4.572;2023-05-14T10:08:04;17.10;99.90
45104;DHT22;30865;51.288;4.572;2023-05-14T10:10:34;17.00;99.90
45104;DHT22;30865;51.288;4.572;2023-05-14T10:13:13;17.10;99.90
45104;DHT22;30865;51.288;4.572;2023-05-14T10:15:46;17.20;99.90
45104;DHT22;30865;51.288;4.572;2023-05-14T10:18:16;17.30;99.90
45104;DHT22;30865;51.288;4.572;2023-05-14T10:20:59;17.40;99.90
45104;DHT22;30865;51.288;4.572;2023-05-14T10:23:28;17.40;99.90
45104;DHT22;30865;51.288;4.572;2023-05-14T10:25:55;17.60;99.90
45104;DHT22;30865;51.288;4.572;2023-05-14T10:28:20;17.50;99.90
45104;DHT22;30865;51.288;4.572;2023-05-14T10:30:46;17.70;99.90
45104;DHT22;30865;51.288;4.572;2023-05-14T10:33:13;18.00;99.90
45104;DHT22;30865;51.288;4.572;2023-05-14T10:35:54;18.30;99.90
45104;DHT22;30865;51.288;4.572;2023-05-14T10:38:27;18.30;99.90
45104;DHT22;30865;51.288;4.572;2023-05-14T10:41:01;18.40;99.90
45104;DHT22;30865;51.288;4.572;2023-05-14T10:43:28;18.60;99.90
45104;DHT22;30865;51.288;4.572;2023-05-14T10:46:04;18.50;99.90
45104;DHT22;30865;51.288;4.572;2023-05-14T10:48:31;18.60;99.90
45104;DHT22;30865;51.288;4.572;2023-05-14T10:50:56;18.30;99.90
45104;DHT22;30865;51.288;4.572;2023-05-14T10:53:34;18.10;99.90
45104;DHT22;30865;51.288;4.572;2023-05-14T10:56:18;18.20;99.90
45104;DHT22;30865;51.288;4.572;2023-05-14T10:58:44;18.30;99.90
45104;DHT22;30865;51.288;4.572;2023-05-14T11:01:11;18.70;99.90
45104;DHT22;30865;51.288;4.572;2023-05-14T11:03:45;18.90;99.90
45104;DHT22;30865;51.288;4.572;2023-05-14T11:06:12;18.80;99.90
45104;DHT22;30865;51.288;4.572;2023-05-14T11:08:39;18.70;99.90
45104;DHT22;30865;51.288;4.572;2023-05-14T11:11:08;18.80;99.90
45104;DHT22;30865;51.288;4.572;2023-05-14T11:13:34;19.10;99.90
45104;DHT22;30865;51.288;4.572;2023-05-14T11:16:01;19.60;99.40
45104;DHT22;30865;51.288;4.572;2023-05-14T11:18:27;19.50;98.00
45104;DHT22;30865;51.288;4.572;2023-05-14T11:20:57;19.20;97.20
45104;DHT22;30865;51.288;4.572;2023-05-14T11:23:23;19.30;97.90
45104;DHT22;30865;51.288;4.572;2023-05-14T11:25:51;18.70;96.80
45104;DHT22;30865;51.288;4.572;2023-05-14T11:28:17;19.10;95.50
45104;DHT22;30865;51.288;4.572;2023-05-14T11:30:44;19.40;94.90
45104;DHT22;30865;51.288;4.572;2023-05-14T11:33:10;19.60;95.90
45104;DHT22;30865;51.288;4.572;2023-05-14T11:35:36;19.90;96.10
45104;DHT22;30865;51.288;4.572;2023-05-14T11:38:02;20.30;93.70
45104;DHT22;30865;51.288;4.572;2023-05-14T11:40:27;20.30;93.00
45104;DHT22;30865;51.288;4.572;2023-05-14T11:42:53;19.30;96.10
45104;DHT22;30865;51.288;4.572;2023-05-14T11:45:25;18.90;98.80
45104;DHT22;30865;51.288;4.572;2023-05-14T11:47:52;19.10;98.10
45104;DHT22;30865;51.288;4.572;2023-05-14T11:50:20;19.60;96.40
45104;DHT22;30865;51.288;4.572;2023-05-14T11:52:46;19.30;97.20
45104;DHT22;30865;51.288;4.572;2023-05-14T11:55:15;19.20;96.60
45104;DHT22;30865;51.288;4.572;2023-05-14T11:57:41;19.30;97.10
45104;DHT22;30865;51.288;4.572;2023-05-14T12:00:10;18.90;97.10
45104;DHT22;30865;51.288;4.572;2023-05-14T12:02:47;18.80;97.00
45104;DHT22;30865;51.288;4.572;2023-05-14T12:05:13;19.00;96.80
45104;DHT22;30865;51.288;4.572;2023-05-14T12:07:38;19.00;97.70
45104;DHT22;30865;51.288;4.572;2023-05-14T12:10:04;18.80;97.50
45104;DHT22;30865;51.288;4.572;2023-05-14T12:12:34;18.80;97.60
45104;DHT22;30865;51.288;4.572;2023-05-14T12:15:01;18.80;97.20
45104;DHT22;30865;51.288;4.572;2023-05-14T12:17:26;19.00;96.30
45104;DHT22;30865;51.288;4.572;2023-05-14T12:19:52;19.60;93.90
45104;DHT22;30865;51.288;4.572;2023-05-14T12:22:19;20.00;92.70
45104;DHT22;30865;51.288;4.572;2023-05-14T12:24:55;19.90;92.70
45104;DHT22;30865;51.288;4.572;2023-05-14T12:27:22;19.50;92.70
45104;DHT22;30865;51.288;4.572;2023-05-14T12:29:49;19.30;93.20
45104;DHT22;30865;51.288;4.572;2023-05-14T12:32:17;19.10;91.40
45104;DHT22;30865;51.288;4.572;2023-05-14T12:34:44;18.80;91.60
45104;DHT22;30865;51.288;4.572;2023-05-14T12:37:09;18.80;92.00
45104;DHT22;30865;51.288;4.572;2023-05-14T12:39:38;18.70;90.60
45104;DHT22;30865;51.288;4.572;2023-05-14T12:42:03;19.10;92.10
45104;DHT22;30865;51.288;4.572;2023-05-14T12:44:29;19.40;91.50
45104;DHT22;30865;51.288;4.572;2023-05-14T12:46:54;19.60;92.00
45104;DHT22;30865;51.288;4.572;2023-05-14T12:49:20;19.70;90.70
45104;DHT22;30865;51.288;4.572;2023-05-14T12:51:46;19.60;90.50
45104;DHT22;30865;51.288;4.572;2023-05-14T12:54:11;19.50;91.50
45104;DHT22;30865;51.288;4.572;2023-05-14T12:56:37;19.40;87.50
45104;DHT22;30865;51.288;4.572;2023-05-14T12:59:03;20.00;87.50
45104;DHT22;30865;51.288;4.572;2023-05-14T13:01:29;20.30;87.30
45104;DHT22;30865;51.288;4.572;2023-05-14T13:04:04;20.00;87.80
45104;DHT22;30865;51.288;4.572;2023-05-14T13:06:30;20.10;86.50
45104;DHT22;30865;51.288;4.572;2023-05-14T13:08:56;19.90;85.80
45104;DHT22;30865;51.288;4.572;2023-05-14T13:11:24;19.90;84.40
45104;DHT22;30865;51.288;4.572;2023-05-14T13:13:51;20.20;83.20
45104;DHT22;30865;51.288;4.572;2023-05-14T13:16:16;20.30;79.80
45104;DHT22;30865;51.288;4.572;2023-05-14T13:18:42;20.10;79.80
45104;DHT22;30865;51.288;4.572;2023-05-14T13:21:07;20.00;81.40
45104;DHT22;30865;51.288;4.572;2023-05-14T13:23:33;20.20;81.20
45104;DHT22;30865;51.288;4.572;2023-05-14T13:25:58;21.00;79.60
45104;DHT22;30865;51.288;4.572;2023-05-14T13:28:24;20.30;80.70
45104;DHT22;30865;51.288;4.572;2023-05-14T13:31:04;20.00;78.40
45104;DHT22;30865;51.288;4.572;2023-05-14T13:33:32;19.50;83.50
45104;DHT22;30865;51.288;4.572;2023-05-14T13:35:58;19.40;85.90
45104;DHT22;30865;51.288;4.572;2023-05-14T13:38:24;19.90;80.30
45104;DHT22;30865;51.288;4.572;2023-05-14T13:40:49;20.40;79.10
45104;DHT22;30865;51.288;4.572;2023-05-14T13:43:15;19.70;79.00
45104;DHT22;30865;51.288;4.572;2023-05-14T13:45:41;20.10;82.30
45104;DHT22;30865;51.288;4.572;2023-05-14T13:48:06;19.60;81.00
45104;DHT22;30865;51.288;4.572;2023-05-14T13:50:32;19.50;83.30
45104;DHT22;30865;51.288;4.572;2023-05-14T13:52:57;20.20;82.60
45104;DHT22;30865;51.288;4.572;2023-05-14T13:55:23;20.60;80.60
45104;DHT22;30865;51.288;4.572;2023-05-14T13:57:48;20.60;79.00
45104;DHT22;30865;51.288;4.572;2023-05-14T14:00:14;20.70;77.40
45104;DHT22;30865;51.288;4.572;2023-05-14T14:02:40;20.70;75.00
45104;DHT22;30865;51.288;4.572;2023-05-14T14:05:05;20.30;75.70
45104;DHT22;30865;51.288;4.572;2023-05-14T14:07:31;20.70;75.20
45104;DHT22;30865;51.288;4.572;2023-05-14T14:09:57;20.90;74.20
45104;DHT22;30865;51.288;4.572;2023-05-14T14:12:22;20.90;74.30
45104;DHT22;30865;51.288;4.572;2023-05-14T14:14:57;20.40;77.40
45104;DHT22;30865;51.288;4.572;2023-05-14T14:17:23;20.70;75.00
45104;DHT22;30865;51.288;4.572;2023-05-14T14:19:48;21.00;74.80
45104;DHT22;30865;51.288;4.572;2023-05-14T14:22:14;21.30;74.70
45104;DHT22;30865;51.288;4.572;2023-05-14T14:24:41;22.00;73.30
45104;DHT22;30865;51.288;4.572;2023-05-14T14:27:07;22.80;68.90
45104;DHT22;30865;51.288;4.572;2023-05-14T14:29:33;22.60;66.90
45104;DHT22;30865;51.288;4.572;2023-05-14T14:31:58;22.50;66.80
45104;DHT22;30865;51.288;4.572;2023-05-14T14:34:24;22.80;65.10
45104;DHT22;30865;51.288;4.572;2023-05-14T14:36:49;23.00;64.50
45104;DHT22;30865;51.288;4.572;2023-05-14T14:39:15;22.80;62.60
45104;DHT22;30865;51.288;4.572;2023-05-14T14:41:40;23.60;59.20
45104;DHT22;30865;51.288;4.572;2023-05-14T14:44:06;23.30;56.90
45104;DHT22;30865;51.288;4.572;2023-05-14T14:46:31;21.70;62.30
45104;DHT22;30865;51.288;4.572;2023-05-14T14:48:57;20.20;66.20
45104;DHT22;30865;51.288;4.572;2023-05-14T14:51:23;20.00;69.50
45104;DHT22;30865;51.288;4.572;2023-05-14T14:53:48;19.90;72.00
45104;DHT22;30865;51.288;4.572;2023-05-14T14:56:14;20.20;72.30
45104;DHT22;30865;51.288;4.572;2023-05-14T14:58:39;19.60;74.70
45104;DHT22;30865;51.288;4.572;2023-05-14T15:01:05;19.30;79.00
45104;DHT22;30865;51.288;4.572;2023-05-14T15:03:31;19.30;80.90
45104;DHT22;30865;51.288;4.572;2023-05-14T15:05:56;18.90;78.60
45104;DHT22;30865;51.288;4.572;2023-05-14T15:08:24;18.70;79.60
45104;DHT22;30865;51.288;4.572;2023-05-14T15:10:51;19.10;79.60
45104;DHT22;30865;51.288;4.572;2023-05-14T15:13:17;18.90;79.30
45104;DHT22;30865;51.288;4.572;2023-05-14T15:15:43;19.00;79.60
45104;DHT22;30865;51.288;4.572;2023-05-14T15:18:09;19.10;80.00
45104;DHT22;30865;51.288;4.572;2023-05-14T15:20:34;19.10;80.60
45104;DHT22;30865;51.288;4.572;2023-05-14T15:23:00;18.80;80.70
45104;DHT22;30865;51.288;4.572;2023-05-14T15:25:26;18.80;81.00
45104;DHT22;30865;51.288;4.572;2023-05-14T15:27:51;18.50;80.10
45104;DHT22;30865;51.288;4.572;2023-05-14T15:30:17;18.10;81.60
45104;DHT22;30865;51.288;4.572;2023-05-14T15:32:43;18.30;81.20
45104;DHT22;30865;51.288;4.572;2023-05-14T15:35:10;18.40;78.70